sensor_id;sensor_type;location;lat;lon;timestamp;pressure;altitude;pressure_sealevel;temperature;humidity
55538;BME280;41383;51.418;7.286;2023-06-04T00:00:35;100337.59;;;14.38;46.34
55538;BME280;41383;51.418;7.286;2023-06-04T00:03:00;100345.00;;;14.32;47.04
55538;BME280;41383;51.418;7.286;2023-06-04T00:05:25;100347.47;;;14.23;47.31
55538;BME280;41383;51.418;7.286;2023-06-04T00:07:51;100336.50;;;14.18;47.68
55538;BME280;41383;51.418;7.286;2023-06-04T00:10:17;100336.50;;;14.23;47.34
55538;BME280;41383;51.418;7.286;2023-06-04T00:12:42;100331.28;;;14.27;47.56
55538;BME280;41383;51.418;7.286;2023-06-04T00:15:08;100333.22;;;14.16;47.67
55538;BME280;41383;51.418;7.286;2023-06-04T00:17:33;100328.56;;;14.00;47.87
55538;BME280;41383;51.418;7.286;2023-06-04T00:19:58;100324.16;;;14.10;48.07
55538;BME280;41383;51.418;7.286;2023-06-04T00:22:24;100320.59;;;14.15;47.79
55538;BME280;41383;51.418;7.286;2023-06-04T00:24:49;100317.56;;;14.27;47.53
55538;BME280;41383;51.418;7.286;2023-06-04T00:27:14;100322.25;;;14.31;47.13
55538;BME280;41383;51.418;7.286;2023-06-04T00:29:39;100334.03;;;14.32;47.40
55538;BME280;41383;51.418;7.286;2023-06-04T00:32:05;100326.91;;;14.26;46.98
55538;BME280;41383;51.418;7.286;2023-06-04T00:34:30;100327.72;;;14.36;46.86
55538;BME280;41383;51.418;7.286;2023-06-04T00:36:56;100324.94;;;14.52;46.66
55538;BME280;41383;51.418;7.286;2023-06-04T00:39:21;100323.00;;;14.63;45.71
55538;BME280;41383;51.418;7.286;2023-06-04T00:41:46;100326.53;;;14.69;45.45
55538;BME280;41383;51.418;7.286;2023-06-04T00:44:12;100328.22;;;14.59;46.36
55538;BME280;41383;51.418;7.286;2023-06-04T00:46:37;100324.94;;;14.57;45.76
55538;BME280;41383;51.418;7.286;2023-06-04T00:49:04;100332.63;;;14.50;46.21
55538;BME280;41383;51.418;7.286;2023-06-04T00:51:31;100326.88;;;14.46;46.34
55538;BME280;41383;51.418;7.286;2023-06-04T00:53:58;100321.97;;;14.33;47.23
55538;BME280;41383;51.418;7.286;2023-06-04T00:56:23;100326.63;;;14.27;47.67
55538;BME280;41383;51.418;7.286;2023-06-04T00:58:48;100334.59;;;14.23;47.33
55538;BME280;41383;51.418;7.286;2023-06-04T01:03:54;100334.59;;;14.03;48.22
55538;BME280;41383;51.418;7.286;2023-06-04T01:06:26;100333.78;;;14.07;48.00
55538;BME280;41383;51.418;7.286;2023-06-04T01:08:53;100338.72;;;13.95;48.63
55538;BME280;41383;51.418;7.286;2023-06-04T01:11:38;100335.13;;;13.99;48.41
55538;BME280;41383;51.418;7.286;2023-06-04T01:14:04;100331.03;;;13.92;48.53
55538;BME280;41383;51.418;7.286;2023-06-04T01:16:35;100326.91;;;13.68;48.85
55538;BME280;41383;51.418;7.286;2023-06-04T01:19:04;100324.44;;;13.77;48.65
55538;BME280;41383;51.418;7.286;2023-06-04T01:21:36;100325.28;;;13.83;48.16
55538;BME280;41383;51.418;7.286;2023-06-04T01:24:04;100333.22;;;13.95;48.16
55538;BME280;41383;51.418;7.286;2023-06-04T01:26:31;100339.78;;;13.94;48.11
55538;BME280;41383;51.418;7.286;2023-06-04T01:28:58;100339.00;;;13.93;47.87
55538;BME280;41383;51.418;7.286;2023-06-04T01:31:25;100332.69;;;13.93;47.89
55538;BME280;41383;51.418;7.286;2023-06-04T01:33:52;100339.78;;;13.94;47.85
55538;BME280;41383;51.418;7.286;2023-06-04T01:36:18;100344.19;;;13.84;48.04
55538;BME280;41383;51.418;7.286;2023-06-04T01:38:43;100332.13;;;13.75;48.78
55538;BME280;41383;51.418;7.286;2023-06-04T01:41:08;100334.84;;;13.70;48.93
55538;BME280;41383;51.418;7.286;2023-06-04T01:43:33;100335.09;;;13.63;49.14
55538;BME280;41383;51.418;7.286;2023-06-04T01:46:00;100345.53;;;13.66;48.83
55538;BME280;41383;51.418;7.286;2023-06-04T01:48:26;100339.72;;;13.52;48.94
55538;BME280;41383;51.418;7.286;2023-06-04T01:50:51;100341.88;;;13.39;49.57
55538;BME280;41383;51.418;7.286;2023-06-04T01:53:16;100336.09;;;13.30;50.02
55538;BME280;41383;51.418;7.286;2023-06-04T01:55:42;100334.41;;;13.14;50.82
55538;BME280;41383;51.418;7.286;2023-06-04T01:58:08;100337.41;;;13.12;50.79
55538;BME280;41383;51.418;7.286;2023-06-04T02:00:34;100332.44;;;12.99;51.04
55538;BME280;41383;51.418;7.286;2023-06-04T02:02:59;100336.22;;;12.92;51.21
55538;BME280;41383;51.418;7.286;2023-06-04T02:05:25;100335.13;;;12.88;51.15
55538;BME280;41383;51.418;7.286;2023-06-04T02:07:50;100337.56;;;12.84;51.14
55538;BME280;41383;51.418;7.286;2023-06-04T02:10:18;100337.84;;;12.83;51.10
55538;BME280;41383;51.418;7.286;2023-06-04T02:12:58;100341.09;;;12.80;51.39
55538;BME280;41383;51.418;7.286;2023-06-04T02:15:24;100335.34;;;12.76;51.69
55538;BME280;41383;51.418;7.286;2023-06-04T02:17:51;100344.88;;;12.68;52.43
55538;BME280;41383;51.418;7.286;2023-06-04T02:20:16;100338.78;;;12.61;52.69
55538;BME280;41383;51.418;7.286;2023-06-04T02:22:42;100352.50;;;12.66;52.42
55538;BME280;41383;51.418;7.286;2023-06-04T02:25:08;100347.91;;;12.72;52.42
55538;BME280;41383;51.418;7.286;2023-06-04T02:27:36;100347.63;;;12.73;52.16
55538;BME280;41383;51.418;7.286;2023-06-04T02:30:03;100340.63;;;12.93;52.17
55538;BME280;41383;51.418;7.286;2023-06-04T02:32:28;100340.63;;;12.93;51.84
55538;BME280;41383;51.418;7.286;2023-06-04T02:34:54;100353.78;;;13.02;51.17
55538;BME280;41383;51.418;7.286;2023-06-04T02:37:20;100343.13;;;13.05;51.17
55538;BME280;41383;51.418;7.286;2023-06-04T02:39:45;100347.22;;;13.03;51.34
55538;BME280;41383;51.418;7.286;2023-06-04T02:42:11;100347.22;;;12.98;50.96
55538;BME280;41383;51.418;7.286;2023-06-04T02:44:36;100344.22;;;12.99;51.07
55538;BME280;41383;51.418;7.286;2023-06-04T02:47:01;100342.81;;;12.91;51.35
55538;BME280;41383;51.418;7.286;2023-06-04T02:49:27;100345.53;;;12.91;51.51
55538;BME280;41383;51.418;7.286;2023-06-04T02:51:52;100345.50;;;12.81;51.36
55538;BME280;41383;51.418;7.286;2023-06-04T02:54:17;100341.94;;;12.86;51.54
55538;BME280;41383;51.418;7.286;2023-06-04T02:56:43;100347.03;;;12.66;52.19
55538;BME280;41383;51.418;7.286;2023-06-04T02:59:09;100349.56;;;12.78;51.88
55538;BME280;41383;51.418;7.286;2023-06-04T03:01:35;100344.38;;;12.82;51.52
55538;BME280;41383;51.418;7.286;2023-06-04T03:04:01;100346.59;;;12.85;51.17
55538;BME280;41383;51.418;7.286;2023-06-04T03:06:29;100343.25;;;12.78;51.20
55538;BME280;41383;51.418;7.286;2023-06-04T03:08:56;100339.97;;;12.76;51.53
55538;BME280;41383;51.418;7.286;2023-06-04T03:11:21;100336.69;;;12.73;51.63
55538;BME280;41383;51.418;7.286;2023-06-04T03:13:47;100350.91;;;12.76;51.54
55538;BME280;41383;51.418;7.286;2023-06-04T03:16:13;100351.75;;;12.81;51.39
55538;BME280;41383;51.418;7.286;2023-06-04T03:18:42;100346.75;;;12.63;52.00
55538;BME280;41383;51.418;7.286;2023-06-04T03:21:08;100344.25;;;12.56;51.77
55538;BME280;41383;51.418;7.286;2023-06-04T03:23:34;100352.66;;;12.49;52.45
55538;BME280;41383;51.418;7.286;2023-06-04T03:26:02;100352.72;;;12.54;52.28
55538;BME280;41383;51.418;7.286;2023-06-04T03:28:27;100345.94;;;12.62;52.46
55538;BME280;41383;51.418;7.286;2023-06-04T03:30:53;100343.63;;;12.43;52.61
55538;BME280;41383;51.418;7.286;2023-06-04T03:33:18;100348.00;;;12.44;52.76
55538;BME280;41383;51.418;7.286;2023-06-04T03:35:43;100351.50;;;12.34;53.18
55538;BME280;41383;51.418;7.286;2023-06-04T03:38:09;100347.94;;;12.34;53.01
55538;BME280;41383;51.418;7.286;2023-06-04T03:40:34;100353.34;;;12.29;53.33
55538;BME280;41383;51.418;7.286;2023-06-04T03:42:59;100355.00;;;12.30;53.36
55538;BME280;41383;51.418;7.286;2023-06-04T03:45:25;100353.06;;;12.25;53.76
55538;BME280;41383;51.418;7.286;2023-06-04T03:47:51;100353.22;;;12.13;53.83
55538;BME280;41383;51.418;7.286;2023-06-04T03:50:18;100360.50;;;12.02;54.11
55538;BME280;41383;51.418;7.286;2023-06-04T03:52:43;100356.88;;;11.96;54.50
55538;BME280;41383;51.418;7.286;2023-06-04T03:55:08;100354.81;;;12.09;54.44
55538;BME280;41383;51.418;7.286;2023-06-04T03:57:33;100358.38;;;12.09;54.44
55538;BME280;41383;51.418;7.286;2023-06-04T03:59:59;100361.09;;;12.09;54.29
55538;BME280;41383;51.418;7.286;2023-06-04T04:02:24;100356.06;;;12.23;54.37
55538;BME280;41383;51.418;7.286;2023-06-04T04:04:50;100358.75;;;12.18;54.69
55538;BME280;41383;51.418;7.286;2023-06-04T04:07:15;100362.13;;;12.31;54.54
55538;BME280;41383;51.418;7.286;2023-06-04T04:09:40;100362.19;;;12.41;53.75
55538;BME280;41383;51.418;7.286;2023-06-04T04:12:06;100367.78;;;12.57;53.82
55538;BME280;41383;51.418;7.286;2023-06-04T04:14:32;100362.91;;;12.69;53.37
55538;BME280;41383;51.418;7.286;2023-06-04T04:16:57;100362.97;;;12.80;53.41
55538;BME280;41383;51.418;7.286;2023-06-04T04:19:22;100361.84;;;12.76;53.54
55538;BME280;41383;51.418;7.286;2023-06-04T04:21:47;100357.75;;;12.73;53.52
55538;BME280;41383;51.418;7.286;2023-06-04T04:24:33;100352.25;;;12.68;54.43
55538;BME280;41383;51.418;7.286;2023-06-04T04:27:00;100363.25;;;12.83;53.54
55538;BME280;41383;51.418;7.286;2023-06-04T04:29:29;100361.41;;;12.89;53.59
55538;BME280;41383;51.418;7.286;2023-06-04T04:31:58;100358.19;;;13.03;52.85
55538;BME280;41383;51.418;7.286;2023-06-04T04:34:26;100356.84;;;13.11;52.98
55538;BME280;41383;51.418;7.286;2023-06-04T04:36:51;100354.97;;;13.22;52.54
55538;BME280;41383;51.418;7.286;2023-06-04T04:39:25;100346.22;;;13.25;52.44
55538;BME280;41383;51.418;7.286;2023-06-04T04:41:51;100350.66;;;13.36;52.91
55538;BME280;41383;51.418;7.286;2023-06-04T04:44:16;100354.19;;;13.37;52.67
55538;BME280;41383;51.418;7.286;2023-06-04T04:46:42;100356.97;;;13.42;52.17
55538;BME280;41383;51.418;7.286;2023-06-04T04:49:07;100353.94;;;13.43;52.83
55538;BME280;41383;51.418;7.286;2023-06-04T04:51:32;100354.84;;;13.54;52.01
55538;BME280;41383;51.418;7.286;2023-06-04T04:53:58;100356.22;;;13.68;51.78
55538;BME280;41383;51.418;7.286;2023-06-04T04:56:25;100358.13;;;13.67;51.78
55538;BME280;41383;51.418;7.286;2023-06-04T04:58:51;100355.69;;;13.71;51.54
55538;BME280;41383;51.418;7.286;2023-06-04T05:01:16;100349.63;;;13.79;51.41
55538;BME280;41383;51.418;7.286;2023-06-04T05:03:42;100357.31;;;13.87;51.48
55538;BME280;41383;51.418;7.286;2023-06-04T05:06:07;100360.63;;;13.89;51.37
55538;BME280;41383;51.418;7.286;2023-06-04T05:08:32;100351.59;;;14.05;51.08
55538;BME280;41383;51.418;7.286;2023-06-04T05:10:57;100356.81;;;14.01;51.46
55538;BME280;41383;51.418;7.286;2023-06-04T05:13:23;100363.38;;;13.95;51.49
55538;BME280;41383;51.418;7.286;2023-06-04T05:15:48;100361.72;;;13.94;51.46
55538;BME280;41383;51.418;7.286;2023-06-04T05:18:14;100354.59;;;13.98;51.21
55538;BME280;41383;51.418;7.286;2023-06-04T05:20:41;100353.53;;;14.09;51.19
55538;BME280;41383;51.418;7.286;2023-06-04T05:23:08;100363.94;;;14.12;51.03
55538;BME280;41383;51.418;7.286;2023-06-04T05:25:33;100361.47;;;14.27;50.79
55538;BME280;41383;51.418;7.286;2023-06-04T05:27:59;100366.66;;;14.39;50.41
55538;BME280;41383;51.418;7.286;2023-06-04T05:30:24;100362.00;;;14.39;50.81
55538;BME280;41383;51.418;7.286;2023-06-04T05:32:49;100360.88;;;14.40;50.81
55538;BME280;41383;51.418;7.286;2023-06-04T05:35:15;100362.53;;;14.41;51.14
55538;BME280;41383;51.418;7.286;2023-06-04T05:37:41;100362.25;;;14.43;51.31
55538;BME280;41383;51.418;7.286;2023-06-04T05:40:07;100361.69;;;14.56;50.51
55538;BME280;41383;51.418;7.286;2023-06-04T05:42:33;100361.16;;;14.59;50.53
55538;BME280;41383;51.418;7.286;2023-06-04T05:44:59;100364.44;;;14.51;50.85
55538;BME280;41383;51.418;7.286;2023-06-04T05:47:24;100358.94;;;14.62;50.60
55538;BME280;41383;51.418;7.286;2023-06-04T05:49:49;100363.31;;;14.73;49.96
55538;BME280;41383;51.418;7.286;2023-06-04T05:52:15;100367.41;;;14.81;49.64
55538;BME280;41383;51.418;7.286;2023-06-04T05:54:40;100373.19;;;14.74;50.52
55538;BME280;41383;51.418;7.286;2023-06-04T05:57:06;100366.84;;;14.79;50.39
55538;BME280;41383;51.418;7.286;2023-06-04T05:59:31;100370.16;;;14.86;50.25
55538;BME280;41383;51.418;7.286;2023-06-04T06:01:57;100371.53;;;14.84;50.32
55538;BME280;41383;51.418;7.286;2023-06-04T06:04:22;100376.50;;;14.87;49.96
55538;BME280;41383;51.418;7.286;2023-06-04T06:06:48;100378.13;;;14.88;49.96
55538;BME280;41383;51.418;7.286;2023-06-04T06:09:16;100379.78;;;14.89;50.57
55538;BME280;41383;51.418;7.286;2023-06-04T06:11:42;100374.81;;;14.96;50.57
55538;BME280;41383;51.418;7.286;2023-06-04T06:14:07;100384.44;;;14.83;50.74
55538;BME280;41383;51.418;7.286;2023-06-04T06:16:32;100379.19;;;15.02;49.41
55538;BME280;41383;51.418;7.286;2023-06-04T06:18:58;100381.31;;;15.21;48.91
55538;BME280;41383;51.418;7.286;2023-06-04T06:21:24;100380.19;;;15.27;49.34
55538;BME280;41383;51.418;7.286;2023-06-04T06:23:49;100394.44;;;15.29;49.32
55538;BME280;41383;51.418;7.286;2023-06-04T06:26:14;100397.25;;;15.14;49.23
55538;BME280;41383;51.418;7.286;2023-06-04T06:28:41;100395.31;;;15.20;49.36
55538;BME280;41383;51.418;7.286;2023-06-04T06:31:06;100396.59;;;15.38;48.80
55538;BME280;41383;51.418;7.286;2023-06-04T06:33:32;100401.00;;;15.39;47.84
55538;BME280;41383;51.418;7.286;2023-06-04T06:35:57;100400.41;;;15.47;48.32
55538;BME280;41383;51.418;7.286;2023-06-04T06:38:25;100399.59;;;15.47;47.28
55538;BME280;41383;51.418;7.286;2023-06-04T06:40:50;100398.16;;;15.60;47.06
55538;BME280;41383;51.418;7.286;2023-06-04T06:43:15;100399.50;;;15.68;46.88
55538;BME280;41383;51.418;7.286;2023-06-04T06:45:41;100405.53;;;15.70;45.61
55538;BME280;41383;51.418;7.286;2023-06-04T06:48:06;100404.25;;;15.51;47.25
55538;BME280;41383;51.418;7.286;2023-06-04T06:50:31;100404.78;;;15.54;47.68
55538;BME280;41383;51.418;7.286;2023-06-04T06:52:58;100405.88;;;15.58;47.14
55538;BME280;41383;51.418;7.286;2023-06-04T06:55:23;100403.28;;;15.77;46.68
55538;BME280;41383;51.418;7.286;2023-06-04T06:57:49;100406.91;;;15.67;46.88
55538;BME280;41383;51.418;7.286;2023-06-04T07:00:14;100410.13;;;15.80;46.42
55538;BME280;41383;51.418;7.286;2023-06-04T07:02:40;100408.41;;;15.94;45.76
55538;BME280;41383;51.418;7.286;2023-06-04T07:05:06;100406.72;;;15.98;45.96
55538;BME280;41383;51.418;7.286;2023-06-04T07:07:31;100406.69;;;16.04;45.58
55538;BME280;41383;51.418;7.286;2023-06-04T07:09:56;100408.34;;;16.05;46.02
55538;BME280;41383;51.418;7.286;2023-06-04T07:12:22;100411.63;;;16.07;46.17
55538;BME280;41383;51.418;7.286;2023-06-04T07:14:47;100409.59;;;16.23;45.35
55538;BME280;41383;51.418;7.286;2023-06-04T07:17:13;100415.00;;;16.33;45.20
55538;BME280;41383;51.418;7.286;2023-06-04T07:19:39;100415.81;;;16.34;45.17
55538;BME280;41383;51.418;7.286;2023-06-04T07:22:04;100409.25;;;16.30;46.10
55538;BME280;41383;51.418;7.286;2023-06-04T07:24:30;100408.56;;;16.43;45.31
55538;BME280;41383;51.418;7.286;2023-06-04T07:26:55;100413.75;;;16.50;45.07
55538;BME280;41383;51.418;7.286;2023-06-04T07:29:21;100407.78;;;16.43;45.27
55538;BME280;41383;51.418;7.286;2023-06-04T07:31:46;100415.41;;;16.51;44.96
55538;BME280;41383;51.418;7.286;2023-06-04T07:34:11;100410.16;;;16.55;44.52
55538;BME280;41383;51.418;7.286;2023-06-04T07:36:36;100408.47;;;16.59;44.88
55538;BME280;41383;51.418;7.286;2023-06-04T07:39:02;100408.38;;;16.64;44.13
55538;BME280;41383;51.418;7.286;2023-06-04T07:41:29;100410.50;;;16.73;44.39
55538;BME280;41383;51.418;7.286;2023-06-04T07:43:55;100413.28;;;16.73;44.82
55538;BME280;41383;51.418;7.286;2023-06-04T07:46:20;100410.19;;;16.79;44.46
55538;BME280;41383;51.418;7.286;2023-06-04T07:48:46;100406.19;;;16.91;44.88
55538;BME280;41383;51.418;7.286;2023-06-04T07:51:12;100416.88;;;16.98;44.23
55538;BME280;41383;51.418;7.286;2023-06-04T07:53:38;100415.09;;;17.07;43.72
55538;BME280;41383;51.418;7.286;2023-06-04T07:56:04;100421.69;;;17.11;43.69
55538;BME280;41383;51.418;7.286;2023-06-04T07:58:29;100412.78;;;17.20;43.70
55538;BME280;41383;51.418;7.286;2023-06-04T08:00:55;100424.88;;;17.24;43.16
55538;BME280;41383;51.418;7.286;2023-06-04T08:03:21;100419.81;;;17.31;43.09
55538;BME280;41383;51.418;7.286;2023-06-04T08:05:46;100411.94;;;17.44;42.90
55538;BME280;41383;51.418;7.286;2023-06-04T08:08:11;100414.34;;;17.50;42.58
55538;BME280;41383;51.418;7.286;2023-06-04T08:10:36;100411.47;;;17.61;40.91
55538;BME280;41383;51.418;7.286;2023-06-04T08:13:02;100417.31;;;17.54;41.60
55538;BME280;41383;51.418;7.286;2023-06-04T08:15:27;100411.69;;;17.65;41.74
55538;BME280;41383;51.418;7.286;2023-06-04T08:17:53;100413.16;;;17.76;41.75
55538;BME280;41383;51.418;7.286;2023-06-04T08:20:18;100416.38;;;17.83;41.64
55538;BME280;41383;51.418;7.286;2023-06-04T08:22:43;100415.72;;;17.92;40.96
55538;BME280;41383;51.418;7.286;2023-06-04T08:25:09;100415.00;;;18.00;40.68
55538;BME280;41383;51.418;7.286;2023-06-04T08:27:34;100418.81;;;18.04;40.32
55538;BME280;41383;51.418;7.286;2023-06-04T08:29:59;100423.75;;;18.07;42.02
55538;BME280;41383;51.418;7.286;2023-06-04T08:32:25;100415.91;;;18.15;40.68
55538;BME280;41383;51.418;7.286;2023-06-04T08:34:50;100425.47;;;18.23;40.48
55538;BME280;41383;51.418;7.286;2023-06-04T08:37:17;100418.97;;;18.33;40.16
55538;BME280;41383;51.418;7.286;2023-06-04T08:39:42;100423.78;;;18.41;40.11
55538;BME280;41383;51.418;7.286;2023-06-04T08:42:10;100420.44;;;18.44;39.24
55538;BME280;41383;51.418;7.286;2023-06-04T08:44:41;100422.50;;;18.52;39.75
55538;BME280;41383;51.418;7.286;2023-06-04T08:47:08;100414.13;;;18.58;39.23
55538;BME280;41383;51.418;7.286;2023-06-04T08:49:34;100426.00;;;18.72;39.57
55538;BME280;41383;51.418;7.286;2023-06-04T08:52:01;100423.59;;;18.85;40.38
55538;BME280;41383;51.418;7.286;2023-06-04T08:54:28;100414.59;;;18.93;38.61
55538;BME280;41383;51.418;7.286;2023-06-04T08:56:56;100416.34;;;19.03;38.82
55538;BME280;41383;51.418;7.286;2023-06-04T08:59:22;100417.19;;;19.18;38.31
55538;BME280;41383;51.418;7.286;2023-06-04T09:01:48;100409.28;;;19.25;38.42
55538;BME280;41383;51.418;7.286;2023-06-04T09:04:13;100414.09;;;19.33;38.39
55538;BME280;41383;51.418;7.286;2023-06-04T09:06:39;100415.72;;;19.48;37.13
55538;BME280;41383;51.418;7.286;2023-06-04T09:09:09;100416.13;;;19.56;37.21
55538;BME280;41383;51.418;7.286;2023-06-04T09:11:46;100420.47;;;19.71;36.56
55538;BME280;41383;51.418;7.286;2023-06-04T09:14:14;100427.75;;;19.81;37.17
55538;BME280;41383;51.418;7.286;2023-06-04T09:16:49;100419.00;;;19.88;36.67
55538;BME280;41383;51.418;7.286;2023-06-04T09:19:15;100415.81;;;19.94;35.13
55538;BME280;41383;51.418;7.286;2023-06-04T09:21:55;100421.41;;;20.03;35.79
55538;BME280;41383;51.418;7.286;2023-06-04T09:24:22;100418.63;;;20.17;36.40
55538;BME280;41383;51.418;7.286;2023-06-04T09:26:48;100418.34;;;20.28;36.59
55538;BME280;41383;51.418;7.286;2023-06-04T09:29:14;100411.94;;;20.41;36.11
55538;BME280;41383;51.418;7.286;2023-06-04T09:31:40;100417.72;;;20.54;36.36
55538;BME280;41383;51.418;7.286;2023-06-04T09:34:06;100417.91;;;20.58;36.20
55538;BME280;41383;51.418;7.286;2023-06-04T09:36:35;100413.09;;;20.72;35.79
55538;BME280;41383;51.418;7.286;2023-06-04T09:39:04;100417.63;;;20.68;35.61
55538;BME280;41383;51.418;7.286;2023-06-04T09:41:30;100404.44;;;20.74;35.22
55538;BME280;41383;51.418;7.286;2023-06-04T09:44:02;100417.38;;;20.87;34.94
55538;BME280;41383;51.418;7.286;2023-06-04T09:46:28;100419.91;;;20.98;34.42
55538;BME280;41383;51.418;7.286;2023-06-04T09:49:00;100419.91;;;20.98;35.12
55538;BME280;41383;51.418;7.286;2023-06-04T09:51:26;100419.44;;;21.05;35.33
55538;BME280;41383;51.418;7.286;2023-06-04T09:54:02;100415.34;;;21.02;33.36
55538;BME280;41383;51.418;7.286;2023-06-04T09:56:27;100420.13;;;21.10;34.00
55538;BME280;41383;51.418;7.286;2023-06-04T09:58:59;100412.78;;;21.15;32.84
55538;BME280;41383;51.418;7.286;2023-06-04T10:01:28;100410.84;;;21.24;32.91
55538;BME280;41383;51.418;7.286;2023-06-04T10:03:55;100420.19;;;21.37;33.24
55538;BME280;41383;51.418;7.286;2023-06-04T10:06:22;100415.13;;;21.48;32.03
55538;BME280;41383;51.418;7.286;2023-06-04T10:08:49;100408.16;;;21.60;31.89
55538;BME280;41383;51.418;7.286;2023-06-04T10:11:17;100410.28;;;21.72;31.77
55538;BME280;41383;51.418;7.286;2023-06-04T10:14:25;100400.50;;;21.65;31.33
55538;BME280;41383;51.418;7.286;2023-06-04T10:16:53;100401.00;;;21.85;32.56
55538;BME280;41383;51.418;7.286;2023-06-04T10:19:19;100399.69;;;21.83;33.00
55538;BME280;41383;51.418;7.286;2023-06-04T10:21:45;100400.34;;;21.97;31.70
55538;BME280;41383;51.418;7.286;2023-06-04T10:24:12;100408.03;;;22.00;31.34
55538;BME280;41383;51.418;7.286;2023-06-04T10:26:38;100398.53;;;22.19;32.01
55538;BME280;41383;51.418;7.286;2023-06-04T10:29:05;100393.16;;;22.23;31.56
55538;BME280;41383;51.418;7.286;2023-06-04T10:31:32;100399.66;;;22.36;30.64
55538;BME280;41383;51.418;7.286;2023-06-04T10:33:57;100399.81;;;22.39;31.66
55538;BME280;41383;51.418;7.286;2023-06-04T10:36:24;100400.47;;;22.45;31.32
55538;BME280;41383;51.418;7.286;2023-06-04T10:38:53;100391.78;;;22.47;31.86
55538;BME280;41383;51.418;7.286;2023-06-04T10:41:20;100401.94;;;22.34;32.57
55538;BME280;41383;51.418;7.286;2023-06-04T10:43:48;100405.03;;;22.41;31.57
55538;BME280;41383;51.418;7.286;2023-06-04T10:46:18;100393.88;;;22.59;31.62
55538;BME280;41383;51.418;7.286;2023-06-04T10:48:51;100399.09;;;22.69;31.82
55538;BME280;41383;51.418;7.286;2023-06-04T10:51:28;100399.25;;;22.73;31.66
55538;BME280;41383;51.418;7.286;2023-06-04T10:53:58;100392.03;;;22.81;31.21
55538;BME280;41383;51.418;7.286;2023-06-04T10:56:25;100387.44;;;22.85;31.34
55538;BME280;41383;51.418;7.286;2023-06-04T10:58:51;100393.25;;;23.01;31.57
55538;BME280;41383;51.418;7.286;2023-06-04T11:01:26;100382.81;;;22.98;32.13
55538;BME280;41383;51.418;7.286;2023-06-04T11:03:53;100385.41;;;22.94;31.68
55538;BME280;41383;51.418;7.286;2023-06-04T11:06:18;100384.09;;;23.01;31.80
55538;BME280;41383;51.418;7.286;2023-06-04T11:08:44;100384.19;;;23.13;31.85
55538;BME280;41383;51.418;7.286;2023-06-04T11:11:16;100375.94;;;23.26;30.72
55538;BME280;41383;51.418;7.286;2023-06-04T11:13:42;100375.94;;;23.26;30.34
55538;BME280;41383;51.418;7.286;2023-06-04T11:16:20;100376.53;;;23.31;30.17
55538;BME280;41383;51.418;7.286;2023-06-04T11:18:58;100368.34;;;23.35;29.86
55538;BME280;41383;51.418;7.286;2023-06-04T11:21:27;100371.47;;;23.33;30.09
55538;BME280;41383;51.418;7.286;2023-06-04T11:23:59;100373.41;;;23.33;31.23
55538;BME280;41383;51.418;7.286;2023-06-04T11:26:35;100367.00;;;23.41;29.61
55538;BME280;41383;51.418;7.286;2023-06-04T11:29:02;100371.06;;;23.44;30.24
55538;BME280;41383;51.418;7.286;2023-06-04T11:31:40;100369.28;;;23.48;30.72
55538;BME280;41383;51.418;7.286;2023-06-04T11:34:07;100370.28;;;23.65;30.65
55538;BME280;41383;51.418;7.286;2023-06-04T11:36:33;100367.00;;;23.84;30.23
55538;BME280;41383;51.418;7.286;2023-06-04T11:39:00;100368.66;;;23.85;30.68
55538;BME280;41383;51.418;7.286;2023-06-04T11:41:33;100362.25;;;23.85;30.64
55538;BME280;41383;51.418;7.286;2023-06-04T11:44:03;100362.38;;;23.88;30.22
55538;BME280;41383;51.418;7.286;2023-06-04T11:46:33;100371.22;;;23.90;30.01
55538;BME280;41383;51.418;7.286;2023-06-04T11:48:59;100361.97;;;23.99;29.89
55538;BME280;41383;51.418;7.286;2023-06-04T11:51:25;100362.25;;;24.06;30.26
55538;BME280;41383;51.418;7.286;2023-06-04T11:53:51;100360.19;;;24.16;30.10
55538;BME280;41383;51.418;7.286;2023-06-04T11:56:17;100357.03;;;24.17;29.06
55538;BME280;41383;51.418;7.286;2023-06-04T11:58:43;100349.69;;;24.34;30.05
55538;BME280;41383;51.418;7.286;2023-06-04T12:01:11;100361.38;;;24.27;29.52
55538;BME280;41383;51.418;7.286;2023-06-04T12:03:41;100360.44;;;24.23;29.37
55538;BME280;41383;51.418;7.286;2023-06-04T12:06:14;100352.81;;;24.32;29.68
55538;BME280;41383;51.418;7.286;2023-06-04T12:08:50;100351.91;;;24.41;30.56
55538;BME280;41383;51.418;7.286;2023-06-04T12:11:34;100342.97;;;24.47;29.71
55538;BME280;41383;51.418;7.286;2023-06-04T12:14:16;100347.50;;;24.40;29.49
55538;BME280;41383;51.418;7.286;2023-06-04T12:16:42;100351.13;;;24.53;29.48
55538;BME280;41383;51.418;7.286;2023-06-04T12:19:08;100341.38;;;24.59;28.16
55538;BME280;41383;51.418;7.286;2023-06-04T12:21:35;100342.53;;;24.58;28.60
55538;BME280;41383;51.418;7.286;2023-06-04T12:24:08;100338.91;;;24.70;28.37
55538;BME280;41383;51.418;7.286;2023-06-04T12:26:34;100335.66;;;24.68;28.99
55538;BME280;41383;51.418;7.286;2023-06-04T12:29:12;100331.13;;;24.76;28.95
55538;BME280;41383;51.418;7.286;2023-06-04T12:31:39;100337.06;;;24.87;28.94
55538;BME280;41383;51.418;7.286;2023-06-04T12:34:05;100337.78;;;24.96;28.92
55538;BME280;41383;51.418;7.286;2023-06-04T12:36:31;100326.97;;;25.20;28.53
55538;BME280;41383;51.418;7.286;2023-06-04T12:38:59;100333.56;;;25.27;27.74
55538;BME280;41383;51.418;7.286;2023-06-04T12:41:26;100332.91;;;25.47;28.40
55538;BME280;41383;51.418;7.286;2023-06-04T12:43:51;100328.53;;;25.46;26.38
55538;BME280;41383;51.418;7.286;2023-06-04T12:46:17;100332.31;;;25.53;26.49
55538;BME280;41383;51.418;7.286;2023-06-04T12:48:42;100339.13;;;25.40;27.21
55538;BME280;41383;51.418;7.286;2023-06-04T12:51:09;100336.34;;;25.27;27.39